sensor_id;sensor_type;location;lat;lon;timestamp;temperature;humidity
26541;DHT22;14206;50.202;10.948;2024-03-02T00:01:37;6.70;96.60
26541;DHT22;14206;50.202;10.948;2024-03-02T00:04:05;6.60;96.60
26541;DHT22;14206;50.202;10.948;2024-03-02T00:06:34;6.60;96.60
26541;DHT22;14206;50.202;10.948;2024-03-02T00:09:01;6.60;96.60
26541;DHT22;14206;50.202;10.948;2024-03-02T00:11:28;6.60;96.60
26541;DHT22;14206;50.202;10.948;2024-03-02T00:13:55;6.50;96.60
26541;DHT22;14206;50.202;10.948;2024-03-02T00:16:22;6.50;96.60
26541;DHT22;14206;50.202;10.948;2024-03-02T00:18:51;6.50;96.60
26541;DHT22;14206;50.202;10.948;2024-03-02T00:21:18;6.60;96.60
26541;DHT22;14206;50.202;10.948;2024-03-02T00:23:48;6.60;96.60
26541;DHT22;14206;50.202;10.948;2024-03-02T00:26:18;6.60;96.60
26541;DHT22;14206;50.202;10.948;2024-03-02T00:28:45;6.60;96.60
26541;DHT22;14206;50.202;10.948;2024-03-02T00:31:13;6.60;96.60
26541;DHT22;14206;50.202;10.948;2024-03-02T00:33:47;6.50;96.60
26541;DHT22;14206;50.202;10.948;2024-03-02T00:36:16;6.50;96.60
26541;DHT22;14206;50.202;10.948;2024-03-02T00:38:50;6.50;96.60
26541;DHT22;14206;50.202;10.948;2024-03-02T00:41:22;6.50;96.60
26541;DHT22;14206;50.202;10.948;2024-03-02T00:44:03;6.50;96.60
26541;DHT22;14206;50.202;10.948;2024-03-02T00:46:42;6.50;96.60
26541;DHT22;14206;50.202;10.948;2024-03-02T00:51:47;6.50;96.60
26541;DHT22;14206;50.202;10.948;2024-03-02T00:54:22;6.50;96.60
26541;DHT22;14206;50.202;10.948;2024-03-02T00:56:52;6.50;96.60
26541;DHT22;14206;50.202;10.948;2024-03-02T00:59:19;6.50;96.60
26541;DHT22;14206;50.202;10.948;2024-03-02T01:01:47;6.50;96.60
26541;DHT22;14206;50.202;10.948;2024-03-02T01:04:14;6.50;96.60
26541;DHT22;14206;50.202;10.948;2024-03-02T01:06:44;6.50;96.60
26541;DHT22;14206;50.202;10.948;2024-03-02T01:09:12;6.50;96.60
26541;DHT22;14206;50.202;10.948;2024-03-02T01:11:39;6.50;96.60
26541;DHT22;14206;50.202;10.948;2024-03-02T01:14:06;6.50;96.60
26541;DHT22;14206;50.202;10.948;2024-03-02T01:16:33;6.50;96.60
26541;DHT22;14206;50.202;10.948;2024-03-02T01:19:00;6.50;96.60
26541;DHT22;14206;50.202;10.948;2024-03-02T01:21:27;6.50;96.60
26541;DHT22;14206;50.202;10.948;2024-03-02T01:23:55;6.50;96.60
26541;DHT22;14206;50.202;10.948;2024-03-02T01:26:21;6.60;96.60
26541;DHT22;14206;50.202;10.948;2024-03-02T01:28:48;6.60;96.60
26541;DHT22;14206;50.202;10.948;2024-03-02T01:31:15;6.60;96.60
26541;DHT22;14206;50.202;10.948;2024-03-02T01:33:42;6.60;96.60
26541;DHT22;14206;50.202;10.948;2024-03-02T01:36:09;6.60;96.60
26541;DHT22;14206;50.202;10.948;2024-03-02T01:38:36;6.60;96.60
26541;DHT22;14206;50.202;10.948;2024-03-02T01:41:03;6.60;96.60
26541;DHT22;14206;50.202;10.948;2024-03-02T01:43:30;6.60;96.60
26541;DHT22;14206;50.202;10.948;2024-03-02T01:45:57;6.60;96.60
26541;DHT22;14206;50.202;10.948;2024-03-02T01:48:24;6.60;96.60
26541;DHT22;14206;50.202;10.948;2024-03-02T01:50:51;6.60;96.60
26541;DHT22;14206;50.202;10.948;2024-03-02T01:53:18;6.60;96.60
26541;DHT22;14206;50.202;10.948;2024-03-02T01:55:45;6.70;96.60
26541;DHT22;14206;50.202;10.948;2024-03-02T01:58:13;6.70;96.60
26541;DHT22;14206;50.202;10.948;2024-03-02T02:00:41;6.60;96.60
26541;DHT22;14206;50.202;10.948;2024-03-02T02:03:09;6.70;96.60
26541;DHT22;14206;50.202;10.948;2024-03-02T02:05:36;6.70;96.60
26541;DHT22;14206;50.202;10.948;2024-03-02T02:08:03;6.70;96.60
26541;DHT22;14206;50.202;10.948;2024-03-02T02:10:33;6.70;96.60
26541;DHT22;14206;50.202;10.948;2024-03-02T02:13:00;6.70;96.60
26541;DHT22;14206;50.202;10.948;2024-03-02T02:15:31;6.70;96.60
26541;DHT22;14206;50.202;10.948;2024-03-02T02:18:00;6.70;96.60
26541;DHT22;14206;50.202;10.948;2024-03-02T02:20:27;6.70;96.60
26541;DHT22;14206;50.202;10.948;2024-03-02T02:22:56;6.70;96.60
26541;DHT22;14206;50.202;10.948;2024-03-02T02:25:23;6.70;96.60
26541;DHT22;14206;50.202;10.948;2024-03-02T02:27:50;6.80;96.60
26541;DHT22;14206;50.202;10.948;2024-03-02T02:30:24;6.80;96.60
26541;DHT22;14206;50.202;10.948;2024-03-02T02:32:52;6.90;96.60
26541;DHT22;14206;50.202;10.948;2024-03-02T02:35:19;6.90;96.60
26541;DHT22;14206;50.202;10.948;2024-03-02T02:37:46;6.90;96.60
26541;DHT22;14206;50.202;10.948;2024-03-02T02:40:14;7.00;96.60
26541;DHT22;14206;50.202;10.948;2024-03-02T02:42:41;7.00;96.60
26541;DHT22;14206;50.202;10.948;2024-03-02T02:45:08;7.00;96.60
26541;DHT22;14206;50.202;10.948;2024-03-02T02:47:35;7.00;96.60
26541;DHT22;14206;50.202;10.948;2024-03-02T02:50:03;7.00;96.60
26541;DHT22;14206;50.202;10.948;2024-03-02T02:52:38;7.00;96.60
26541;DHT22;14206;50.202;10.948;2024-03-02T02:55:08;7.00;96.60
26541;DHT22;14206;50.202;10.948;2024-03-02T02:57:35;7.00;96.60
26541;DHT22;14206;50.202;10.948;2024-03-02T03:00:12;6.90;96.60
26541;DHT22;14206;50.202;10.948;2024-03-02T03:02:49;6.90;96.60
26541;DHT22;14206;50.202;10.948;2024-03-02T03:05:17;6.90;96.60
26541;DHT22;14206;50.202;10.948;2024-03-02T03:07:44;6.90;96.60
26541;DHT22;14206;50.202;10.948;2024-03-02T03:10:12;6.90;96.60
26541;DHT22;14206;50.202;10.948;2024-03-02T03:12:41;6.90;96.60
26541;DHT22;14206;50.202;10.948;2024-03-02T03:15:10;7.00;96.60
26541;DHT22;14206;50.202;10.948;2024-03-02T03:17:38;7.00;96.60
26541;DHT22;14206;50.202;10.948;2024-03-02T03:20:11;7.00;96.60
26541;DHT22;14206;50.202;10.948;2024-03-02T03:22:39;7.00;96.60
26541;DHT22;14206;50.202;10.948;2024-03-02T03:25:06;7.00;96.60
26541;DHT22;14206;50.202;10.948;2024-03-02T03:27:35;7.00;96.60
26541;DHT22;14206;50.202;10.948;2024-03-02T03:30:02;7.00;96.60
26541;DHT22;14206;50.202;10.948;2024-03-02T03:32:29;7.00;96.60
26541;DHT22;14206;50.202;10.948;2024-03-02T03:34:56;7.00;96.60
26541;DHT22;14206;50.202;10.948;2024-03-02T03:37:23;7.00;96.60
26541;DHT22;14206;50.202;10.948;2024-03-02T03:39:52;6.90;96.60
26541;DHT22;14206;50.202;10.948;2024-03-02T03:42:19;6.90;96.60
26541;DHT22;14206;50.202;10.948;2024-03-02T03:44:46;6.90;96.60
26541;DHT22;14206;50.202;10.948;2024-03-02T03:47:13;6.90;96.60
26541;DHT22;14206;50.202;10.948;2024-03-02T03:49:40;6.90;96.60
26541;DHT22;14206;50.202;10.948;2024-03-02T03:52:06;6.90;96.60
26541;DHT22;14206;50.202;10.948;2024-03-02T03:54:33;6.90;96.60
26541;DHT22;14206;50.202;10.948;2024-03-02T03:57:00;6.90;96.60
26541;DHT22;14206;50.202;10.948;2024-03-02T03:59:27;7.00;96.60
26541;DHT22;14206;50.202;10.948;2024-03-02T04:01:54;7.00;96.60
26541;DHT22;14206;50.202;10.948;2024-03-02T04:04:21;6.90;96.60
26541;DHT22;14206;50.202;10.948;2024-03-02T04:06:48;6.90;96.60
26541;DHT22;14206;50.202;10.948;2024-03-02T04:09:15;6.90;96.60
26541;DHT22;14206;50.202;10.948;2024-03-02T04:11:41;6.80;96.60
26541;DHT22;14206;50.202;10.948;2024-03-02T04:14:09;6.80;96.60
26541;DHT22;14206;50.202;10.948;2024-03-02T04:16:36;6.70;96.60
26541;DHT22;14206;50.202;10.948;2024-03-02T04:19:03;6.70;96.60
26541;DHT22;14206;50.202;10.948;2024-03-02T04:21:30;6.70;96.60
26541;DHT22;14206;50.202;10.948;2024-03-02T04:23:57;6.70;96.60
26541;DHT22;14206;50.202;10.948;2024-03-02T04:26:26;6.60;96.60
26541;DHT22;14206;50.202;10.948;2024-03-02T04:28:53;6.60;96.60
26541;DHT22;14206;50.202;10.948;2024-03-02T04:31:21;6.50;96.60
26541;DHT22;14206;50.202;10.948;2024-03-02T04:33:54;6.50;96.60
26541;DHT22;14206;50.202;10.948;2024-03-02T04:36:21;6.40;96.60
26541;DHT22;14206;50.202;10.948;2024-03-02T04:38:48;6.40;96.60
26541;DHT22;14206;50.202;10.948;2024-03-02T04:41:15;6.30;96.60
26541;DHT22;14206;50.202;10.948;2024-03-02T04:43:42;6.30;96.60
26541;DHT22;14206;50.202;10.948;2024-03-02T04:46:09;6.30;96.60
26541;DHT22;14206;50.202;10.948;2024-03-02T04:48:36;6.30;96.60
26541;DHT22;14206;50.202;10.948;2024-03-02T04:51:03;6.30;96.60
26541;DHT22;14206;50.202;10.948;2024-03-02T04:53:30;6.30;96.60
26541;DHT22;14206;50.202;10.948;2024-03-02T04:55:57;6.30;96.60
26541;DHT22;14206;50.202;10.948;2024-03-02T04:58:42;6.30;96.60
26541;DHT22;14206;50.202;10.948;2024-03-02T05:01:09;6.30;96.60
26541;DHT22;14206;50.202;10.948;2024-03-02T05:03:37;6.30;96.60
26541;DHT22;14206;50.202;10.948;2024-03-02T05:06:04;6.30;96.60
26541;DHT22;14206;50.202;10.948;2024-03-02T05:08:31;6.30;96.60
26541;DHT22;14206;50.202;10.948;2024-03-02T05:10:58;6.30;96.60
26541;DHT22;14206;50.202;10.948;2024-03-02T05:13:45;6.40;96.60
26541;DHT22;14206;50.202;10.948;2024-03-02T05:16:12;6.40;96.60
26541;DHT22;14206;50.202;10.948;2024-03-02T05:18:38;6.40;96.60
26541;DHT22;14206;50.202;10.948;2024-03-02T05:21:05;6.40;96.60
26541;DHT22;14206;50.202;10.948;2024-03-02T05:23:32;6.40;96.60
26541;DHT22;14206;50.202;10.948;2024-03-02T05:25:59;6.40;96.60
26541;DHT22;14206;50.202;10.948;2024-03-02T05:28:26;6.40;96.60
26541;DHT22;14206;50.202;10.948;2024-03-02T05:30:53;6.40;96.60
26541;DHT22;14206;50.202;10.948;2024-03-02T05:33:20;6.40;96.60
26541;DHT22;14206;50.202;10.948;2024-03-02T05:35:49;6.40;96.60
26541;DHT22;14206;50.202;10.948;2024-03-02T05:38:22;6.40;96.60
26541;DHT22;14206;50.202;10.948;2024-03-02T05:40:49;6.40;96.60
26541;DHT22;14206;50.202;10.948;2024-03-02T05:43:16;6.40;96.60
26541;DHT22;14206;50.202;10.948;2024-03-02T05:45:44;6.40;96.60
26541;DHT22;14206;50.202;10.948;2024-03-02T05:48:12;6.40;96.60
26541;DHT22;14206;50.202;10.948;2024-03-02T05:50:39;6.40;96.60
26541;DHT22;14206;50.202;10.948;2024-03-02T05:53:05;6.50;96.60
26541;DHT22;14206;50.202;10.948;2024-03-02T05:55:32;6.50;96.60
26541;DHT22;14206;50.202;10.948;2024-03-02T05:57:59;6.50;96.60
26541;DHT22;14206;50.202;10.948;2024-03-02T06:00:33;6.50;96.60
26541;DHT22;14206;50.202;10.948;2024-03-02T06:03:00;6.60;96.60
26541;DHT22;14206;50.202;10.948;2024-03-02T06:05:27;6.60;96.60
26541;DHT22;14206;50.202;10.948;2024-03-02T06:07:54;6.60;96.60
26541;DHT22;14206;50.202;10.948;2024-03-02T06:10:21;6.60;96.60
26541;DHT22;14206;50.202;10.948;2024-03-02T06:12:48;6.70;96.60
26541;DHT22;14206;50.202;10.948;2024-03-02T06:15:15;6.70;96.60
26541;DHT22;14206;50.202;10.948;2024-03-02T06:17:42;6.70;96.60
26541;DHT22;14206;50.202;10.948;2024-03-02T06:20:09;6.80;96.60
26541;DHT22;14206;50.202;10.948;2024-03-02T06:22:36;6.70;96.60
26541;DHT22;14206;50.202;10.948;2024-03-02T06:25:03;6.80;96.60
26541;DHT22;14206;50.202;10.948;2024-03-02T06:27:30;6.80;96.60
26541;DHT22;14206;50.202;10.948;2024-03-02T06:29:57;6.80;96.60
26541;DHT22;14206;50.202;10.948;2024-03-02T06:32:24;6.80;96.60
26541;DHT22;14206;50.202;10.948;2024-03-02T06:34:52;6.80;96.60
26541;DHT22;14206;50.202;10.948;2024-03-02T06:37:18;6.80;96.60
26541;DHT22;14206;50.202;10.948;2024-03-02T06:39:45;6.80;96.60
26541;DHT22;14206;50.202;10.948;2024-03-02T06:42:12;6.80;96.60
26541;DHT22;14206;50.202;10.948;2024-03-02T06:44:39;6.90;96.60
26541;DHT22;14206;50.202;10.948;2024-03-02T06:47:06;6.90;96.60
26541;DHT22;14206;50.202;10.948;2024-03-02T06:49:33;6.90;96.60
26541;DHT22;14206;50.202;10.948;2024-03-02T06:52:01;7.00;96.60
26541;DHT22;14206;50.202;10.948;2024-03-02T06:54:27;7.10;96.60
26541;DHT22;14206;50.202;10.948;2024-03-02T06:56:55;7.10;96.60
26541;DHT22;14206;50.202;10.948;2024-03-02T06:59:21;7.20;96.60
26541;DHT22;14206;50.202;10.948;2024-03-02T07:01:48;7.20;96.60
26541;DHT22;14206;50.202;10.948;2024-03-02T07:04:15;7.30;96.60
26541;DHT22;14206;50.202;10.948;2024-03-02T07:06:42;7.40;96.60
26541;DHT22;14206;50.202;10.948;2024-03-02T07:09:09;7.40;96.60
26541;DHT22;14206;50.202;10.948;2024-03-02T07:11:37;7.50;96.60
26541;DHT22;14206;50.202;10.948;2024-03-02T07:14:04;7.60;96.60
26541;DHT22;14206;50.202;10.948;2024-03-02T07:16:31;7.70;96.60
26541;DHT22;14206;50.202;10.948;2024-03-02T07:19:00;7.90;96.60
26541;DHT22;14206;50.202;10.948;2024-03-02T07:21:28;8.00;96.60
26541;DHT22;14206;50.202;10.948;2024-03-02T07:23:55;8.10;96.60
26541;DHT22;14206;50.202;10.948;2024-03-02T07:26:22;8.10;96.60
26541;DHT22;14206;50.202;10.948;2024-03-02T07:28:52;8.20;96.60
26541;DHT22;14206;50.202;10.948;2024-03-02T07:31:20;8.20;96.60
26541;DHT22;14206;50.202;10.948;2024-03-02T07:33:47;8.30;96.60
26541;DHT22;14206;50.202;10.948;2024-03-02T07:36:14;8.40;96.60
26541;DHT22;14206;50.202;10.948;2024-03-02T07:38:43;8.50;96.60
26541;DHT22;14206;50.202;10.948;2024-03-02T07:41:11;8.50;96.60
26541;DHT22;14206;50.202;10.948;2024-03-02T07:43:38;8.60;96.60
26541;DHT22;14206;50.202;10.948;2024-03-02T07:46:05;8.60;96.60
26541;DHT22;14206;50.202;10.948;2024-03-02T07:48:32;8.70;96.60
26541;DHT22;14206;50.202;10.948;2024-03-02T07:50:59;8.90;96.60
26541;DHT22;14206;50.202;10.948;2024-03-02T07:53:27;9.00;96.60
26541;DHT22;14206;50.202;10.948;2024-03-02T07:55:53;9.10;96.60
26541;DHT22;14206;50.202;10.948;2024-03-02T07:58:21;9.20;96.60
26541;DHT22;14206;50.202;10.948;2024-03-02T08:00:48;9.40;96.60
26541;DHT22;14206;50.202;10.948;2024-03-02T08:03:18;9.50;96.60
26541;DHT22;14206;50.202;10.948;2024-03-02T08:05:44;9.60;96.60
26541;DHT22;14206;50.202;10.948;2024-03-02T08:08:27;9.70;96.60
26541;DHT22;14206;50.202;10.948;2024-03-02T08:10:54;9.90;96.60
26541;DHT22;14206;50.202;10.948;2024-03-02T08:13:23;10.00;96.50
26541;DHT22;14206;50.202;10.948;2024-03-02T08:15:50;10.20;96.40
26541;DHT22;14206;50.202;10.948;2024-03-02T08:18:17;10.40;95.40
26541;DHT22;14206;50.202;10.948;2024-03-02T08:20:45;10.50;95.30
26541;DHT22;14206;50.202;10.948;2024-03-02T08:23:11;10.80;95.20
26541;DHT22;14206;50.202;10.948;2024-03-02T08:25:38;11.10;94.10
26541;DHT22;14206;50.202;10.948;2024-03-02T08:28:05;11.30;92.70
26541;DHT22;14206;50.202;10.948;2024-03-02T08:30:33;11.40;92.10
26541;DHT22;14206;50.202;10.948;2024-03-02T08:33:00;11.60;92.20
26541;DHT22;14206;50.202;10.948;2024-03-02T08:35:26;11.80;92.10
26541;DHT22;14206;50.202;10.948;2024-03-02T08:37:54;12.10;91.30
26541;DHT22;14206;50.202;10.948;2024-03-02T08:40:21;12.20;89.90
26541;DHT22;14206;50.202;10.948;2024-03-02T08:42:48;12.30;90.30
26541;DHT22;14206;50.202;10.948;2024-03-02T08:45:15;12.40;90.10
26541;DHT22;14206;50.202;10.948;2024-03-02T08:47:43;12.50;89.20
26541;DHT22;14206;50.202;10.948;2024-03-02T08:50:10;12.50;90.50
26541;DHT22;14206;50.202;10.948;2024-03-02T08:52:37;12.50;89.80
26541;DHT22;14206;50.202;10.948;2024-03-02T08:55:04;12.40;89.30
26541;DHT22;14206;50.202;10.948;2024-03-02T08:57:32;12.30;89.00
26541;DHT22;14206;50.202;10.948;2024-03-02T08:59:59;12.30;90.40
26541;DHT22;14206;50.202;10.948;2024-03-02T09:02:26;12.20;90.60
26541;DHT22;14206;50.202;10.948;2024-03-02T09:04:53;12.20;91.10
26541;DHT22;14206;50.202;10.948;2024-03-02T09:07:20;12.40;90.10
26541;DHT22;14206;50.202;10.948;2024-03-02T09:09:47;12.40;89.50
26541;DHT22;14206;50.202;10.948;2024-03-02T09:12:14;12.50;89.60
26541;DHT22;14206;50.202;10.948;2024-03-02T09:14:41;12.50;89.10
26541;DHT22;14206;50.202;10.948;2024-03-02T09:17:08;12.40;88.60
26541;DHT22;14206;50.202;10.948;2024-03-02T09:19:43;12.30;88.40
26541;DHT22;14206;50.202;10.948;2024-03-02T09:22:24;12.30;89.00
26541;DHT22;14206;50.202;10.948;2024-03-02T09:24:51;12.30;90.10
26541;DHT22;14206;50.202;10.948;2024-03-02T09:27:18;12.20;88.80
26541;DHT22;14206;50.202;10.948;2024-03-02T09:29:45;12.30;89.00
26541;DHT22;14206;50.202;10.948;2024-03-02T09:32:13;12.30;88.80
26541;DHT22;14206;50.202;10.948;2024-03-02T09:34:40;12.40;89.10
26541;DHT22;14206;50.202;10.948;2024-03-02T09:37:07;12.50;89.40
26541;DHT22;14206;50.202;10.948;2024-03-02T09:39:34;12.70;89.40
26541;DHT22;14206;50.202;10.948;2024-03-02T09:42:01;13.00;89.20
26541;DHT22;14206;50.202;10.948;2024-03-02T09:44:30;13.20;87.00
26541;DHT22;14206;50.202;10.948;2024-03-02T09:46:57;13.20;86.60
26541;DHT22;14206;50.202;10.948;2024-03-02T09:49:24;13.30;86.90
26541;DHT22;14206;50.202;10.948;2024-03-02T09:51:50;13.40;86.80
26541;DHT22;14206;50.202;10.948;2024-03-02T09:54:17;13.40;86.00
26541;DHT22;14206;50.202;10.948;2024-03-02T09:56:50;13.50;86.50
26541;DHT22;14206;50.202;10.948;2024-03-02T09:59:17;13.60;86.00
26541;DHT22;14206;50.202;10.948;2024-03-02T10:02:03;13.70;86.30
26541;DHT22;14206;50.202;10.948;2024-03-02T10:04:30;13.90;85.50
26541;DHT22;14206;50.202;10.948;2024-03-02T10:07:18;14.10;84.80
26541;DHT22;14206;50.202;10.948;2024-03-02T10:09:47;14.20;84.50
26541;DHT22;14206;50.202;10.948;2024-03-02T10:12:16;14.30;84.00
26541;DHT22;14206;50.202;10.948;2024-03-02T10:14:44;14.20;83.60
26541;DHT22;14206;50.202;10.948;2024-03-02T10:17:12;14.20;84.00
26541;DHT22;14206;50.202;10.948;2024-03-02T10:19:40;14.40;83.70
26541;DHT22;14206;50.202;10.948;2024-03-02T10:22:08;14.40;82.80
26541;DHT22;14206;50.202;10.948;2024-03-02T10:24:39;14.30;83.10
26541;DHT22;14206;50.202;10.948;2024-03-02T10:27:08;14.40;82.40
26541;DHT22;14206;50.202;10.948;2024-03-02T10:29:39;14.30;83.00
26541;DHT22;14206;50.202;10.948;2024-03-02T10:32:10;14.30;82.50
26541;DHT22;14206;50.202;10.948;2024-03-02T10:34:43;14.40;82.80
26541;DHT22;14206;50.202;10.948;2024-03-02T10:37:11;14.60;83.60
26541;DHT22;14206;50.202;10.948;2024-03-02T10:39:39;15.00;82.30
26541;DHT22;14206;50.202;10.948;2024-03-02T10:42:07;15.20;80.70
26541;DHT22;14206;50.202;10.948;2024-03-02T10:44:35;15.20;80.50
26541;DHT22;14206;50.202;10.948;2024-03-02T10:47:04;15.30;80.00
26541;DHT22;14206;50.202;10.948;2024-03-02T10:49:32;15.30;79.80
26541;DHT22;14206;50.202;10.948;2024-03-02T10:52:00;15.20;80.10
26541;DHT22;14206;50.202;10.948;2024-03-02T10:54:27;15.30;80.10
26541;DHT22;14206;50.202;10.948;2024-03-02T10:56:59;15.30;79.50
26541;DHT22;14206;50.202;10.948;2024-03-02T10:59:34;15.20;79.60
26541;DHT22;14206;50.202;10.948;2024-03-02T11:02:03;15.20;80.30
26541;DHT22;14206;50.202;10.948;2024-03-02T11:04:32;15.00;79.80
26541;DHT22;14206;50.202;10.948;2024-03-02T11:07:06;14.90;80.10
26541;DHT22;14206;50.202;10.948;2024-03-02T11:09:35;14.80;81.20
26541;DHT22;14206;50.202;10.948;2024-03-02T11:12:13;14.80;81.50
26541;DHT22;14206;50.202;10.948;2024-03-02T11:14:42;14.90;80.70
26541;DHT22;14206;50.202;10.948;2024-03-02T11:17:14;14.90;81.30
26541;DHT22;14206;50.202;10.948;2024-03-02T11:19:44;15.00;81.00
26541;DHT22;14206;50.202;10.948;2024-03-02T11:22:12;15.00;81.40
26541;DHT22;14206;50.202;10.948;2024-03-02T11:24:51;15.10;80.70
26541;DHT22;14206;50.202;10.948;2024-03-02T11:33:13;15.10;80.50
26541;DHT22;14206;50.202;10.948;2024-03-02T11:35:43;15.10;80.30
26541;DHT22;14206;50.202;10.948;2024-03-02T11:38:13;15.20;80.80
26541;DHT22;14206;50.202;10.948;2024-03-02T11:40:40;15.30;80.10
26541;DHT22;14206;50.202;10.948;2024-03-02T11:43:07;15.40;79.20
26541;DHT22;14206;50.202;10.948;2024-03-02T11:45:44;15.40;79.30
26541;DHT22;14206;50.202;10.948;2024-03-02T11:48:14;15.40;78.80
26541;DHT22;14206;50.202;10.948;2024-03-02T11:50:50;15.30;79.00
26541;DHT22;14206;50.202;10.948;2024-03-02T11:53:19;15.50;79.80
26541;DHT22;14206;50.202;10.948;2024-03-02T11:55:46;15.70;78.70
26541;DHT22;14206;50.202;10.948;2024-03-02T11:58:15;15.70;78.90
26541;DHT22;14206;50.202;10.948;2024-03-02T12:00:47;15.80;78.70
26541;DHT22;14206;50.202;10.948;2024-03-02T12:03:14;15.90;79.20
26541;DHT22;14206;50.202;10.948;2024-03-02T12:05:42;16.00;78.00
26541;DHT22;14206;50.202;10.948;2024-03-02T12:08:11;16.00;77.60
26541;DHT22;14206;50.202;10.948;2024-03-02T12:10:39;16.00;76.90
26541;DHT22;14206;50.202;10.948;2024-03-02T12:13:07;15.90;77.00
26541;DHT22;14206;50.202;10.948;2024-03-02T12:15:35;15.80;77.40
26541;DHT22;14206;50.202;10.948;2024-03-02T12:18:07;15.80;78.40
26541;DHT22;14206;50.202;10.948;2024-03-02T12:20:34;15.90;77.80
26541;DHT22;14206;50.202;10.948;2024-03-02T12:23:02;15.80;78.10
26541;DHT22;14206;50.202;10.948;2024-03-02T12:25:31;15.90;78.00
26541;DHT22;14206;50.202;10.948;2024-03-02T12:28:02;15.70;77.60
26541;DHT22;14206;50.202;10.948;2024-03-02T12:30:31;15.70;78.40
26541;DHT22;14206;50.202;10.948;2024-03-02T12:32:59;15.70;78.70
26541;DHT22;14206;50.202;10.948;2024-03-02T12:35:26;15.70;77.80
26541;DHT22;14206;50.202;10.948;2024-03-02T12:37:54;15.70;77.50
26541;DHT22;14206;50.202;10.948;2024-03-02T12:40:21;15.60;78.20
26541;DHT22;14206;50.202;10.948;2024-03-02T12:42:50;15.60;78.50
26541;DHT22;14206;50.202;10.948;2024-03-02T12:45:18;15.60;78.50
26541;DHT22;14206;50.202;10.948;2024-03-02T12:47:52;15.60;78.20
26541;DHT22;14206;50.202;10.948;2024-03-02T12:50:20;15.50;78.30
26541;DHT22;14206;50.202;10.948;2024-03-02T12:52:54;15.50;78.00
26541;DHT22;14206;50.202;10.948;2024-03-02T12:55:22;15.50;78.10
26541;DHT22;14206;50.202;10.948;2024-03-02T12:57:53;15.40;78.10
26541;DHT22;14206;50.202;10.948;2024-03-02T13:00:21;15.20;78.60
26541;DHT22;14206;50.202;10.948;2024-03-02T13:02:50;15.10;79.00
26541;DHT22;14206;50.202;10.948;2024-03-02T13:05:18;15.20;79.40
26541;DHT22;14206;50.202;10.948;2024-03-02T13:07:47;15.20;79.10
26541;DHT22;14206;50.202;10.948;2024-03-02T13:10:22;15.20;78.50
26541;DHT22;14206;50.202;10.948;2024-03-02T13:12:49;15.20;78.40
26541;DHT22;14206;50.202;10.948;2024-03-02T13:15:17;15.20;79.20
26541;DHT22;14206;50.202;10.948;2024-03-02T13:17:45;15.30;79.30
26541;DHT22;14206;50.202;10.948;2024-03-02T13:20:15;15.20;78.00
26541;DHT22;14206;50.202;10.948;2024-03-02T13:22:42;15.20;78.70
26541;DHT22;14206;50.202;10.948;2024-03-02T13:25:09;15.20;78.90
26541;DHT22;14206;50.202;10.948;2024-03-02T13:27:38;15.30;78.60
26541;DHT22;14206;50.202;10.948;2024-03-02T13:30:06;15.30;78.60
26541;DHT22;14206;50.202;10.948;2024-03-02T13:32:33;15.20;78.20
26541;DHT22;14206;50.202;10.948;2024-03-02T13:35:00;15.20;78.70
26541;DHT22;14206;50.202;10.948;2024-03-02T13:37:27;15.30;79.20
26541;DHT22;14206;50.202;10.948;2024-03-02T13:39:54;15.30;78.10
26541;DHT22;14206;50.202;10.948;2024-03-02T13:42:20;15.30;78.20
26541;DHT22;14206;50.202;10.948;2024-03-02T13:44:48;15.20;77.20
26541;DHT22;14206;50.202;10.948;2024-03-02T13:47:17;15.10;77.90
26541;DHT22;14206;50.202;10.948;2024-03-02T13:49:44;15.00;77.70
26541;DHT22;14206;50.202;10.948;2024-03-02T13:52:14;15.00;78.20
26541;DHT22;14206;50.202;10.948;2024-03-02T13:54:41;14.80;78.90
26541;DHT22;14206;50.202;10.948;2024-03-02T13:57:10;14.70;79.10
26541;DHT22;14206;50.202;10.948;2024-03-02T13:59:37;14.70;79.50
26541;DHT22;14206;50.202;10.948;2024-03-02T14:02:05;14.60;79.30
26541;DHT22;14206;50.202;10.948;2024-03-02T14:04:36;14.60;79.50
26541;DHT22;14206;50.202;10.948;2024-03-02T14:07:05;14.50;79.20
26541;DHT22;14206;50.202;10.948;2024-03-02T14:09:35;14.50;79.30
26541;DHT22;14206;50.202;10.948;2024-03-02T14:12:04;14.40;80.10
26541;DHT22;14206;50.202;10.948;2024-03-02T14:14:32;14.40;80.30
26541;DHT22;14206;50.202;10.948;2024-03-02T14:16:59;14.30;80.00
26541;DHT22;14206;50.202;10.948;2024-03-02T14:19:33;14.30;80.30
26541;DHT22;14206;50.202;10.948;2024-03-02T14:22:00;14.30;80.50
26541;DHT22;14206;50.202;10.948;2024-03-02T14:24:27;14.40;80.30
26541;DHT22;14206;50.202;10.948;2024-03-02T14:26:56;14.40;80.20
26541;DHT22;14206;50.202;10.948;2024-03-02T14:29:42;14.40;80.10
26541;DHT22;14206;50.202;10.948;2024-03-02T14:32:09;14.50;80.30
26541;DHT22;14206;50.202;10.948;2024-03-02T14:34:36;14.60;80.00
26541;DHT22;14206;50.202;10.948;2024-03-02T14:37:05;14.60;80.00
26541;DHT22;14206;50.202;10.948;2024-03-02T14:39:33;14.70;79.70
26541;DHT22;14206;50.202;10.948;2024-03-02T14:42:02;14.80;79.70
26541;DHT22;14206;50.202;10.948;2024-03-02T14:44:29;14.90;79.50
26541;DHT22;14206;50.202;10.948;2024-03-02T14:46:56;15.00;79.60
26541;DHT22;14206;50.202;10.948;2024-03-02T14:49:25;15.00;79.20
26541;DHT22;14206;50.202;10.948;2024-03-02T14:51:52;15.00;79.50
26541;DHT22;14206;50.202;10.948;2024-03-02T14:54:19;15.00;79.30
26541;DHT22;14206;50.202;10.948;2024-03-02T14:56:46;15.00;79.00
26541;DHT22;14206;50.202;10.948;2024-03-02T14:59:13;14.90;79.00
26541;DHT22;14206;50.202;10.948;2024-03-02T15:01:40;14.80;78.90
26541;DHT22;14206;50.202;10.948;2024-03-02T15:04:07;14.70;79.20
26541;DHT22;14206;50.202;10.948;2024-03-02T15:06:34;14.70;79.30
26541;DHT22;14206;50.202;10.948;2024-03-02T15:09:01;14.60;80.00
26541;DHT22;14206;50.202;10.948;2024-03-02T15:11:28;14.50;80.30
26541;DHT22;14206;50.202;10.948;2024-03-02T15:13:57;14.40;80.60
26541;DHT22;14206;50.202;10.948;2024-03-02T15:16:24;14.30;80.30
26541;DHT22;14206;50.202;10.948;2024-03-02T15:18:51;14.20;80.20
26541;DHT22;14206;50.202;10.948;2024-03-02T15:21:18;14.10;80.60
26541;DHT22;14206;50.202;10.948;2024-03-02T15:23:47;14.00;81.30
26541;DHT22;14206;50.202;10.948;2024-03-02T15:26:14;14.00;81.30
26541;DHT22;14206;50.202;10.948;2024-03-02T15:28:42;13.90;81.30
26541;DHT22;14206;50.202;10.948;2024-03-02T15:31:09;13.90;81.60
26541;DHT22;14206;50.202;10.948;2024-03-02T15:33:36;13.90;81.50
26541;DHT22;14206;50.202;10.948;2024-03-02T15:36:03;13.80;81.70
26541;DHT22;14206;50.202;10.948;2024-03-02T15:38:31;13.70;82.00
26541;DHT22;14206;50.202;10.948;2024-03-02T15:41:04;13.60;82.30